»·PEaware :: N117CY KSGU-KHND

N117CY :: KSGU-KHND

FLIGHT INFORMATION

Flight Status: Arrived
Operator: Privately registered:
United States
More flights under this callsign
Pilot: Utku A. (15598)
Aircraft: SOCATA TBM-900
(TBM9)
More flights by this aircraft type
Origin: KSGU St George Mun
United States
Destination: KHND Henderson
United States
More flights between these airports :: More routes between these airports
Route: PHYLI2 PHYLI MMM V21 LAPIN V562 LAS
File this flight plan on PilotEdge
Remarks:
Altitude:
(Current/Filed)
12,000ft
Speed:
(Current/Filed)
250kts
Departed: 07-Nov-18 05:08 PM
Arrived: 07-Nov-18 05:45 PM
Distance/Time
Traveled:
100nm/0:37
Distance/Time
To Go:
Arrived

Flight Plot

Page will automatically refresh every two minutes.

Flight plan parsing failed; only flown route is shown


Map Options




Map Legend


Flown Route
Filed Route
Departure Airport
Arrival Airport
Navaid (VOR, NDB)
Fix

Horizontal Profiles

Position Reports

Time Latitude Longitude Heading Altitude Ground
Speed
07-Nov-18 16:49 37.038902 -113.505272 114 2856ft 0kts
07-Nov-18 16:50 37.038902 -113.505272 114 2856ft 0kts
07-Nov-18 16:51 37.038902 -113.505272 114 2856ft 0kts
07-Nov-18 16:52 37.038902 -113.505272 114 2856ft 0kts
07-Nov-18 16:53 37.038902 -113.505272 114 2856ft 0kts
07-Nov-18 16:54 37.038937 -113.504917 55 2855ft 3kts
07-Nov-18 16:55 37.039982 -113.506188 354 2856ft 6kts
07-Nov-18 16:56 37.042064 -113.505061 23 2856ft 12kts
07-Nov-18 16:57 37.042353 -113.504908 20 2856ft 0kts
07-Nov-18 16:58 37.042353 -113.504908 20 2856ft 0kts
07-Nov-18 16:59 37.042353 -113.504908 20 2856ft 0kts
07-Nov-18 17:00 37.042353 -113.504908 20 2856ft 0kts
07-Nov-18 17:01 37.042353 -113.504908 20 2856ft 0kts
07-Nov-18 17:02 37.042353 -113.504908 20 2856ft 0kts
07-Nov-18 17:03 37.042353 -113.504908 20 2856ft 0kts
07-Nov-18 17:04 37.042353 -113.504908 20 2856ft 0kts
07-Nov-18 17:05 37.042353 -113.504908 20 2856ft 0kts
07-Nov-18 17:06 37.042353 -113.504908 20 2856ft 0kts
07-Nov-18 17:07 37.042353 -113.504908 20 2856ft 0kts
07-Nov-18 17:08 37.042353 -113.504908 20 2856ft 0kts
07-Nov-18 17:09 37.043677 -113.504221 22 2856ft 20kts
07-Nov-18 17:10 37.047319 -113.502346 355 2856ft 7kts
07-Nov-18 17:11 37.043649 -113.506450 202 2857ft 99kts
07-Nov-18 17:12 37.023048 -113.531563 239 5144ft 117kts
07-Nov-18 17:13 37.004732 -113.568857 237 7479ft 130kts
07-Nov-18 17:14 36.990001 -113.608991 265 9799ft 128kts
07-Nov-18 17:15 36.981982 -113.653261 251 11699ft 145kts
07-Nov-18 17:16 36.962031 -113.713034 249 12032ft 229kts
07-Nov-18 17:17 36.936679 -113.787726 249 11997ft 226kts
07-Nov-18 17:18 36.912615 -113.858609 249 12000ft 219kts
07-Nov-18 17:19 36.889518 -113.926495 249 11999ft 218kts
07-Nov-18 17:20 36.866238 -113.994758 249 11999ft 217kts
07-Nov-18 17:21 36.842516 -114.064148 249 11999ft 217kts
07-Nov-18 17:22 36.818727 -114.133575 249 11998ft 217kts
07-Nov-18 17:23 36.794911 -114.202919 249 11998ft 217kts
07-Nov-18 17:24 36.770712 -114.271908 240 11984ft 220kts
07-Nov-18 17:25 36.727849 -114.308924 216 11984ft 227kts
07-Nov-18 17:26 36.665068 -114.357200 216 11972ft 227kts
07-Nov-18 17:27 36.611409 -114.398192 216 11961ft 227kts
07-Nov-18 17:28 36.566300 -114.432592 216 11951ft 227kts
07-Nov-18 17:29 36.512429 -114.473610 216 11944ft 227kts
07-Nov-18 17:30 36.449591 -114.521371 216 11944ft 227kts
07-Nov-18 17:31 36.404718 -114.555420 216 11945ft 227kts
07-Nov-18 17:32 36.342845 -114.602292 216 12001ft 225kts
07-Nov-18 17:33 36.298050 -114.636176 216 11993ft 227kts
07-Nov-18 17:34 36.245301 -114.676007 215 11996ft 225kts
07-Nov-18 17:35 36.193486 -114.715066 216 11690ft 214kts
07-Nov-18 17:36 36.142433 -114.753517 215 10704ft 216kts
07-Nov-18 17:37 36.120540 -114.816058 231 9946ft 207kts
07-Nov-18 17:38 36.062604 -114.837957 221 9141ft 220kts
07-Nov-18 17:39 36.016984 -114.880981 221 7633ft 201kts
07-Nov-18 17:40 35.973977 -114.922595 221 7003ft 196kts
07-Nov-18 17:41 35.931080 -114.964346 221 7002ft 197kts
07-Nov-18 17:42 35.889201 -115.005165 221 7001ft 195kts
07-Nov-18 17:43 35.871013 -115.058949 281 6245ft 172kts
07-Nov-18 17:44 35.889310 -115.108332 307 4924ft 151kts
07-Nov-18 17:45 35.914367 -115.135133 347 3687ft 105kts
07-Nov-18 17:46 35.941473 -115.135918 2 3078ft 97kts
07-Nov-18 17:47 35.965533 -115.135544 1 2448ft 74kts
07-Nov-18 17:48 35.974414 -115.135899 270 2446ft 10kts
07-Nov-18 17:49 35.975372 -115.136914 0 2447ft 12kts
07-Nov-18 17:50 35.977546 -115.137697 268 2447ft 8kts
07-Nov-18 17:51 35.977790 -115.137966 3 2447ft 0kts
07-Nov-18 17:52 35.977790 -115.137966 3 2447ft 0kts
07-Nov-18 17:53 35.977790 -115.137966 3 2447ft 0kts
07-Nov-18 17:54 35.977790 -115.137966 3 2447ft 0kts
07-Nov-18 17:55 35.977790 -115.137966 3 2447ft 0kts
07-Nov-18 17:56 35.977790 -115.137966 3 2447ft 0kts
07-Nov-18 17:57 35.977790 -115.137966 3 2447ft 0kts
07-Nov-18 17:58 35.977790 -115.137966 3 2447ft 0kts
07-Nov-18 17:59 35.977790 -115.137966 3 2447ft 0kts
07-Nov-18 18:00 35.977790 -115.137966 3 2447ft 0kts
07-Nov-18 18:01 35.977790 -115.137966 3 2447ft 0kts
07-Nov-18 18:02 35.977790 -115.137966 3 2447ft 0kts

Navigation Log

Ident Type
Flight plan parsing failed, navigation log unavailable